sensor_id;sensor_type;location;lat;lon;timestamp;temperature;humidity
16172;DHT22;8192;53.596;10.166;2023-07-16T00:01:57;18.90;93.10
16172;DHT22;8192;53.596;10.166;2023-07-16T00:04:24;18.90;93.00
16172;DHT22;8192;53.596;10.166;2023-07-16T00:06:51;19.10;92.70
16172;DHT22;8192;53.596;10.166;2023-07-16T00:09:18;19.10;92.80
16172;DHT22;8192;53.596;10.166;2023-07-16T00:11:47;19.00;92.80
16172;DHT22;8192;53.596;10.166;2023-07-16T00:14:14;18.90;93.20
16172;DHT22;8192;53.596;10.166;2023-07-16T00:16:41;18.90;93.50
16172;DHT22;8192;53.596;10.166;2023-07-16T00:19:10;19.00;93.40
16172;DHT22;8192;53.596;10.166;2023-07-16T00:21:37;18.90;93.80
16172;DHT22;8192;53.596;10.166;2023-07-16T00:24:05;18.90;93.70
16172;DHT22;8192;53.596;10.166;2023-07-16T00:26:32;18.90;93.80
16172;DHT22;8192;53.596;10.166;2023-07-16T00:29:01;18.90;93.90
16172;DHT22;8192;53.596;10.166;2023-07-16T00:31:28;19.00;93.50
16172;DHT22;8192;53.596;10.166;2023-07-16T00:33:55;19.20;93.00
16172;DHT22;8192;53.596;10.166;2023-07-16T00:36:22;19.20;93.00
16172;DHT22;8192;53.596;10.166;2023-07-16T00:38:49;19.00;93.20
16172;DHT22;8192;53.596;10.166;2023-07-16T00:41:16;19.00;93.40
16172;DHT22;8192;53.596;10.166;2023-07-16T00:43:43;19.10;93.40
16172;DHT22;8192;53.596;10.166;2023-07-16T00:46:12;19.10;93.40
16172;DHT22;8192;53.596;10.166;2023-07-16T00:48:40;19.10;93.40
16172;DHT22;8192;53.596;10.166;2023-07-16T00:51:08;19.00;93.90
16172;DHT22;8192;53.596;10.166;2023-07-16T00:53:35;18.90;94.20
16172;DHT22;8192;53.596;10.166;2023-07-16T00:56:03;19.00;94.10
16172;DHT22;8192;53.596;10.166;2023-07-16T00:58:30;18.90;94.40
16172;DHT22;8192;53.596;10.166;2023-07-16T01:00:57;18.80;94.50
16172;DHT22;8192;53.596;10.166;2023-07-16T01:03:25;19.00;94.20
16172;DHT22;8192;53.596;10.166;2023-07-16T01:05:57;19.10;93.70
16172;DHT22;8192;53.596;10.166;2023-07-16T01:08:31;19.00;94.10
16172;DHT22;8192;53.596;10.166;2023-07-16T01:11:00;19.00;94.40
16172;DHT22;8192;53.596;10.166;2023-07-16T01:13:28;18.90;94.60
16172;DHT22;8192;53.596;10.166;2023-07-16T01:15:55;18.80;94.70
16172;DHT22;8192;53.596;10.166;2023-07-16T01:18:22;18.80;95.00
16172;DHT22;8192;53.596;10.166;2023-07-16T01:20:51;18.70;95.10
16172;DHT22;8192;53.596;10.166;2023-07-16T01:23:27;19.00;94.60
16172;DHT22;8192;53.596;10.166;2023-07-16T01:26:13;19.00;94.50
16172;DHT22;8192;53.596;10.166;2023-07-16T01:29:18;19.00;94.40
16172;DHT22;8192;53.596;10.166;2023-07-16T01:31:48;18.90;94.90
16172;DHT22;8192;53.596;10.166;2023-07-16T01:34:17;18.70;95.30
16172;DHT22;8192;53.596;10.166;2023-07-16T01:36:44;18.60;95.70
16172;DHT22;8192;53.596;10.166;2023-07-16T01:39:13;18.50;95.60
16172;DHT22;8192;53.596;10.166;2023-07-16T01:41:40;18.40;96.30
16172;DHT22;8192;53.596;10.166;2023-07-16T01:44:08;18.30;96.30
16172;DHT22;8192;53.596;10.166;2023-07-16T01:46:35;18.40;96.20
16172;DHT22;8192;53.596;10.166;2023-07-16T01:49:02;18.40;96.40
16172;DHT22;8192;53.596;10.166;2023-07-16T01:51:31;18.30;96.80
16172;DHT22;8192;53.596;10.166;2023-07-16T01:53:58;18.20;97.00
16172;DHT22;8192;53.596;10.166;2023-07-16T01:56:25;18.20;97.00
16172;DHT22;8192;53.596;10.166;2023-07-16T01:58:52;18.30;96.50
16172;DHT22;8192;53.596;10.166;2023-07-16T02:01:20;18.30;96.20
16172;DHT22;8192;53.596;10.166;2023-07-16T02:03:47;18.40;95.90
16172;DHT22;8192;53.596;10.166;2023-07-16T02:06:14;18.40;95.50
16172;DHT22;8192;53.596;10.166;2023-07-16T02:08:41;18.50;95.10
16172;DHT22;8192;53.596;10.166;2023-07-16T02:11:08;18.50;94.60
16172;DHT22;8192;53.596;10.166;2023-07-16T02:13:35;18.50;94.80
16172;DHT22;8192;53.596;10.166;2023-07-16T02:16:02;18.50;94.10
16172;DHT22;8192;53.596;10.166;2023-07-16T02:18:31;18.40;94.60
16172;DHT22;8192;53.596;10.166;2023-07-16T02:20:58;18.40;94.50
16172;DHT22;8192;53.596;10.166;2023-07-16T02:23:25;18.40;94.40
16172;DHT22;8192;53.596;10.166;2023-07-16T02:25:52;18.30;93.90
16172;DHT22;8192;53.596;10.166;2023-07-16T02:28:19;18.30;93.20
16172;DHT22;8192;53.596;10.166;2023-07-16T02:30:46;18.20;93.70
16172;DHT22;8192;53.596;10.166;2023-07-16T02:33:14;18.30;93.20
16172;DHT22;8192;53.596;10.166;2023-07-16T02:35:47;18.10;93.20
16172;DHT22;8192;53.596;10.166;2023-07-16T02:38:14;18.00;93.70
16172;DHT22;8192;53.596;10.166;2023-07-16T02:40:43;18.00;93.90
16172;DHT22;8192;53.596;10.166;2023-07-16T02:43:11;18.10;93.00
16172;DHT22;8192;53.596;10.166;2023-07-16T02:45:38;18.00;93.10
16172;DHT22;8192;53.596;10.166;2023-07-16T02:48:06;17.80;94.10
16172;DHT22;8192;53.596;10.166;2023-07-16T02:50:33;17.70;94.40
16172;DHT22;8192;53.596;10.166;2023-07-16T02:53:03;17.70;95.20
16172;DHT22;8192;53.596;10.166;2023-07-16T02:55:30;17.70;95.40
16172;DHT22;8192;53.596;10.166;2023-07-16T02:57:57;17.70;95.30
16172;DHT22;8192;53.596;10.166;2023-07-16T03:00:24;17.70;95.50
16172;DHT22;8192;53.596;10.166;2023-07-16T03:02:51;17.70;95.50
16172;DHT22;8192;53.596;10.166;2023-07-16T03:05:18;17.70;95.80
16172;DHT22;8192;53.596;10.166;2023-07-16T03:07:45;17.70;95.90
16172;DHT22;8192;53.596;10.166;2023-07-16T03:10:14;17.70;95.70
16172;DHT22;8192;53.596;10.166;2023-07-16T03:12:41;17.70;95.90
16172;DHT22;8192;53.596;10.166;2023-07-16T03:15:09;17.70;96.00
16172;DHT22;8192;53.596;10.166;2023-07-16T03:17:36;17.70;96.20
16172;DHT22;8192;53.596;10.166;2023-07-16T03:20:04;17.60;96.30
16172;DHT22;8192;53.596;10.166;2023-07-16T03:22:31;17.60;96.30
16172;DHT22;8192;53.596;10.166;2023-07-16T03:24:58;17.60;96.20
16172;DHT22;8192;53.596;10.166;2023-07-16T03:27:26;17.70;96.30
16172;DHT22;8192;53.596;10.166;2023-07-16T03:29:53;17.60;96.40
16172;DHT22;8192;53.596;10.166;2023-07-16T03:32:20;17.60;96.60
16172;DHT22;8192;53.596;10.166;2023-07-16T03:34:48;17.60;96.60
16172;DHT22;8192;53.596;10.166;2023-07-16T03:37:15;17.50;96.90
16172;DHT22;8192;53.596;10.166;2023-07-16T03:39:42;17.50;97.10
16172;DHT22;8192;53.596;10.166;2023-07-16T03:42:09;17.50;97.00
16172;DHT22;8192;53.596;10.166;2023-07-16T03:44:37;17.50;97.20
16172;DHT22;8192;53.596;10.166;2023-07-16T03:47:04;17.60;97.10
16172;DHT22;8192;53.596;10.166;2023-07-16T03:49:31;17.60;97.00
16172;DHT22;8192;53.596;10.166;2023-07-16T03:51:58;17.50;97.00
16172;DHT22;8192;53.596;10.166;2023-07-16T03:54:25;17.50;97.20
16172;DHT22;8192;53.596;10.166;2023-07-16T03:56:52;17.60;97.10
16172;DHT22;8192;53.596;10.166;2023-07-16T03:59:19;17.50;97.20
16172;DHT22;8192;53.596;10.166;2023-07-16T04:01:47;17.60;97.10
16172;DHT22;8192;53.596;10.166;2023-07-16T04:04:15;17.50;97.00
16172;DHT22;8192;53.596;10.166;2023-07-16T04:06:42;17.50;97.20
16172;DHT22;8192;53.596;10.166;2023-07-16T04:09:09;17.50;97.50
16172;DHT22;8192;53.596;10.166;2023-07-16T04:11:36;17.50;97.70
16172;DHT22;8192;53.596;10.166;2023-07-16T04:14:02;17.60;97.60
16172;DHT22;8192;53.596;10.166;2023-07-16T04:16:29;17.80;97.30
16172;DHT22;8192;53.596;10.166;2023-07-16T04:18:58;17.80;97.10
16172;DHT22;8192;53.596;10.166;2023-07-16T04:21:25;17.90;96.80
16172;DHT22;8192;53.596;10.166;2023-07-16T04:23:51;18.10;96.60
16172;DHT22;8192;53.596;10.166;2023-07-16T04:26:18;18.10;96.20
16172;DHT22;8192;53.596;10.166;2023-07-16T04:28:45;18.10;96.00
16172;DHT22;8192;53.596;10.166;2023-07-16T04:31:12;18.20;96.10
16172;DHT22;8192;53.596;10.166;2023-07-16T04:33:39;18.10;96.10
16172;DHT22;8192;53.596;10.166;2023-07-16T04:36:08;18.10;96.00
16172;DHT22;8192;53.596;10.166;2023-07-16T04:38:35;18.10;96.00
16172;DHT22;8192;53.596;10.166;2023-07-16T04:41:02;18.10;95.90
16172;DHT22;8192;53.596;10.166;2023-07-16T04:43:29;18.10;96.00
16172;DHT22;8192;53.596;10.166;2023-07-16T04:45:56;18.10;96.20
16172;DHT22;8192;53.596;10.166;2023-07-16T04:48:23;18.30;96.30
16172;DHT22;8192;53.596;10.166;2023-07-16T04:50:51;19.10;94.90
16172;DHT22;8192;53.596;10.166;2023-07-16T04:53:19;20.10;92.20
16172;DHT22;8192;53.596;10.166;2023-07-16T04:55:47;20.50;89.30
16172;DHT22;8192;53.596;10.166;2023-07-16T04:58:14;20.50;90.10
16172;DHT22;8192;53.596;10.166;2023-07-16T05:00:41;20.90;88.90
16172;DHT22;8192;53.596;10.166;2023-07-16T05:03:08;21.80;85.60
16172;DHT22;8192;53.596;10.166;2023-07-16T05:05:35;22.80;82.00
16172;DHT22;8192;53.596;10.166;2023-07-16T05:08:02;23.60;79.20
16172;DHT22;8192;53.596;10.166;2023-07-16T05:10:31;24.20;74.00
16172;DHT22;8192;53.596;10.166;2023-07-16T05:12:58;24.80;73.70
16172;DHT22;8192;53.596;10.166;2023-07-16T05:15:25;24.70;71.00
16172;DHT22;8192;53.596;10.166;2023-07-16T05:17:52;23.80;73.70
16172;DHT22;8192;53.596;10.166;2023-07-16T05:20:19;22.60;77.70
16172;DHT22;8192;53.596;10.166;2023-07-16T05:22:46;21.80;81.70
16172;DHT22;8192;53.596;10.166;2023-07-16T05:25:13;22.30;82.40
16172;DHT22;8192;53.596;10.166;2023-07-16T05:27:41;23.30;77.90
16172;DHT22;8192;53.596;10.166;2023-07-16T05:30:09;24.20;74.10
16172;DHT22;8192;53.596;10.166;2023-07-16T05:32:36;25.00;71.50
16172;DHT22;8192;53.596;10.166;2023-07-16T05:35:04;25.60;69.40
16172;DHT22;8192;53.596;10.166;2023-07-16T05:37:31;25.60;66.70
16172;DHT22;8192;53.596;10.166;2023-07-16T05:39:58;25.70;66.70
16172;DHT22;8192;53.596;10.166;2023-07-16T05:42:25;26.00;65.80
16172;DHT22;8192;53.596;10.166;2023-07-16T05:44:53;25.90;64.50
16172;DHT22;8192;53.596;10.166;2023-07-16T05:47:21;25.80;63.40
16172;DHT22;8192;53.596;10.166;2023-07-16T05:49:48;25.40;67.10
16172;DHT22;8192;53.596;10.166;2023-07-16T05:52:15;25.00;68.20
16172;DHT22;8192;53.596;10.166;2023-07-16T05:54:43;25.10;66.90
16172;DHT22;8192;53.596;10.166;2023-07-16T05:57:10;25.40;67.10
16172;DHT22;8192;53.596;10.166;2023-07-16T05:59:37;26.10;66.10
16172;DHT22;8192;53.596;10.166;2023-07-16T06:02:06;25.80;65.00
16172;DHT22;8192;53.596;10.166;2023-07-16T06:04:33;26.20;63.90
16172;DHT22;8192;53.596;10.166;2023-07-16T06:07:02;26.50;61.70
16172;DHT22;8192;53.596;10.166;2023-07-16T06:09:29;26.70;63.40
16172;DHT22;8192;53.596;10.166;2023-07-16T06:11:57;26.60;61.00
16172;DHT22;8192;53.596;10.166;2023-07-16T06:14:24;26.40;63.90
16172;DHT22;8192;53.596;10.166;2023-07-16T06:16:51;26.70;61.50
16172;DHT22;8192;53.596;10.166;2023-07-16T06:19:22;26.50;60.40
16172;DHT22;8192;53.596;10.166;2023-07-16T06:21:49;26.10;59.80
16172;DHT22;8192;53.596;10.166;2023-07-16T06:24:16;26.30;61.60
16172;DHT22;8192;53.596;10.166;2023-07-16T06:26:43;26.10;60.70
16172;DHT22;8192;53.596;10.166;2023-07-16T06:29:10;25.60;58.50
16172;DHT22;8192;53.596;10.166;2023-07-16T06:31:37;25.50;61.10
16172;DHT22;8192;53.596;10.166;2023-07-16T06:34:04;25.70;56.50
16172;DHT22;8192;53.596;10.166;2023-07-16T06:36:32;25.60;57.50
16172;DHT22;8192;53.596;10.166;2023-07-16T06:38:59;25.30;57.70
16172;DHT22;8192;53.596;10.166;2023-07-16T06:41:27;25.50;58.10
16172;DHT22;8192;53.596;10.166;2023-07-16T06:43:55;25.80;57.20
16172;DHT22;8192;53.596;10.166;2023-07-16T06:46:22;25.60;56.10
16172;DHT22;8192;53.596;10.166;2023-07-16T06:48:49;25.10;57.10
16172;DHT22;8192;53.596;10.166;2023-07-16T06:51:16;24.80;57.00
16172;DHT22;8192;53.596;10.166;2023-07-16T06:53:45;25.20;59.80
16172;DHT22;8192;53.596;10.166;2023-07-16T06:56:11;25.30;54.90
16172;DHT22;8192;53.596;10.166;2023-07-16T06:58:38;25.90;54.50
16172;DHT22;8192;53.596;10.166;2023-07-16T07:01:06;26.00;55.40
16172;DHT22;8192;53.596;10.166;2023-07-16T07:03:33;26.10;53.70
16172;DHT22;8192;53.596;10.166;2023-07-16T07:06:02;26.20;53.90
16172;DHT22;8192;53.596;10.166;2023-07-16T07:08:29;27.00;53.70
16172;DHT22;8192;53.596;10.166;2023-07-16T07:10:57;27.00;51.80
16172;DHT22;8192;53.596;10.166;2023-07-16T07:13:24;27.50;51.70
16172;DHT22;8192;53.596;10.166;2023-07-16T07:15:51;28.20;48.60
16172;DHT22;8192;53.596;10.166;2023-07-16T07:18:18;28.30;47.80
16172;DHT22;8192;53.596;10.166;2023-07-16T07:20:46;28.30;49.40
16172;DHT22;8192;53.596;10.166;2023-07-16T07:23:15;28.30;48.20
16172;DHT22;8192;53.596;10.166;2023-07-16T07:25:42;27.70;51.60
16172;DHT22;8192;53.596;10.166;2023-07-16T07:28:11;27.40;50.30
16172;DHT22;8192;53.596;10.166;2023-07-16T07:30:38;27.10;52.90
16172;DHT22;8192;53.596;10.166;2023-07-16T07:33:05;28.00;51.50
16172;DHT22;8192;53.596;10.166;2023-07-16T07:35:32;27.90;49.30
16172;DHT22;8192;53.596;10.166;2023-07-16T07:37:59;27.30;52.20
16172;DHT22;8192;53.596;10.166;2023-07-16T07:40:26;27.20;49.60
16172;DHT22;8192;53.596;10.166;2023-07-16T07:42:53;27.30;51.30
16172;DHT22;8192;53.596;10.166;2023-07-16T07:45:23;27.60;51.30
16172;DHT22;8192;53.596;10.166;2023-07-16T07:47:50;27.60;50.00
16172;DHT22;8192;53.596;10.166;2023-07-16T07:50:17;25.90;52.70
16172;DHT22;8192;53.596;10.166;2023-07-16T07:52:44;24.40;56.20
16172;DHT22;8192;53.596;10.166;2023-07-16T07:55:12;24.50;58.30
16172;DHT22;8192;53.596;10.166;2023-07-16T07:57:39;24.80;57.70
16172;DHT22;8192;53.596;10.166;2023-07-16T08:00:07;24.40;57.20
16172;DHT22;8192;53.596;10.166;2023-07-16T08:02:38;24.40;60.00
16172;DHT22;8192;53.596;10.166;2023-07-16T08:05:06;25.80;57.00
16172;DHT22;8192;53.596;10.166;2023-07-16T08:07:33;26.70;52.60
16172;DHT22;8192;53.596;10.166;2023-07-16T08:10:00;27.30;51.20
16172;DHT22;8192;53.596;10.166;2023-07-16T08:12:28;27.40;50.70
16172;DHT22;8192;53.596;10.166;2023-07-16T08:14:56;26.30;52.80
16172;DHT22;8192;53.596;10.166;2023-07-16T08:17:23;26.10;55.20
16172;DHT22;8192;53.596;10.166;2023-07-16T08:19:51;25.50;55.00
16172;DHT22;8192;53.596;10.166;2023-07-16T08:22:18;24.50;57.80
16172;DHT22;8192;53.596;10.166;2023-07-16T08:24:45;24.80;58.50
16172;DHT22;8192;53.596;10.166;2023-07-16T08:27:12;25.20;57.10
16172;DHT22;8192;53.596;10.166;2023-07-16T08:29:42;25.40;54.90
16172;DHT22;8192;53.596;10.166;2023-07-16T08:32:09;24.70;55.60
16172;DHT22;8192;53.596;10.166;2023-07-16T08:34:36;25.10;55.10
16172;DHT22;8192;53.596;10.166;2023-07-16T08:37:05;25.40;54.70
16172;DHT22;8192;53.596;10.166;2023-07-16T08:39:32;25.90;52.50
16172;DHT22;8192;53.596;10.166;2023-07-16T08:41:59;26.30;56.00
16172;DHT22;8192;53.596;10.166;2023-07-16T08:44:26;25.90;53.00
16172;DHT22;8192;53.596;10.166;2023-07-16T08:46:54;25.70;57.00
16172;DHT22;8192;53.596;10.166;2023-07-16T08:49:22;25.20;55.30
16172;DHT22;8192;53.596;10.166;2023-07-16T08:51:49;24.60;55.20
16172;DHT22;8192;53.596;10.166;2023-07-16T08:54:18;23.80;56.30
16172;DHT22;8192;53.596;10.166;2023-07-16T08:56:45;23.10;58.60
16172;DHT22;8192;53.596;10.166;2023-07-16T08:59:14;22.50;59.40
16172;DHT22;8192;53.596;10.166;2023-07-16T09:01:41;22.30;61.20
16172;DHT22;8192;53.596;10.166;2023-07-16T09:04:08;22.50;62.60
16172;DHT22;8192;53.596;10.166;2023-07-16T09:06:35;23.10;61.10
16172;DHT22;8192;53.596;10.166;2023-07-16T09:09:02;23.30;58.90
16172;DHT22;8192;53.596;10.166;2023-07-16T09:11:31;23.30;60.80
16172;DHT22;8192;53.596;10.166;2023-07-16T09:14:01;22.90;60.90
16172;DHT22;8192;53.596;10.166;2023-07-16T09:16:32;22.90;60.40
16172;DHT22;8192;53.596;10.166;2023-07-16T09:19:05;23.30;56.40
16172;DHT22;8192;53.596;10.166;2023-07-16T09:21:33;23.70;57.10
16172;DHT22;8192;53.596;10.166;2023-07-16T09:24:06;23.80;55.50
16172;DHT22;8192;53.596;10.166;2023-07-16T09:26:36;23.60;53.80
16172;DHT22;8192;53.596;10.166;2023-07-16T09:29:05;24.10;54.80
16172;DHT22;8192;53.596;10.166;2023-07-16T09:31:32;24.30;53.50
16172;DHT22;8192;53.596;10.166;2023-07-16T09:34:00;24.40;53.10
16172;DHT22;8192;53.596;10.166;2023-07-16T09:36:28;24.10;55.50
16172;DHT22;8192;53.596;10.166;2023-07-16T09:38:56;24.00;53.20
16172;DHT22;8192;53.596;10.166;2023-07-16T09:41:24;23.90;55.00
16172;DHT22;8192;53.596;10.166;2023-07-16T09:43:53;23.90;56.40
16172;DHT22;8192;53.596;10.166;2023-07-16T09:46:20;23.60;54.10
16172;DHT22;8192;53.596;10.166;2023-07-16T09:48:48;23.20;55.60
16172;DHT22;8192;53.596;10.166;2023-07-16T09:51:15;22.70;55.80
16172;DHT22;8192;53.596;10.166;2023-07-16T09:53:43;22.60;57.70
16172;DHT22;8192;53.596;10.166;2023-07-16T09:56:13;23.10;58.10
16172;DHT22;8192;53.596;10.166;2023-07-16T09:58:40;23.20;55.10
16172;DHT22;8192;53.596;10.166;2023-07-16T10:01:10;23.90;55.90
16172;DHT22;8192;53.596;10.166;2023-07-16T10:03:47;23.90;54.60
16172;DHT22;8192;53.596;10.166;2023-07-16T10:06:16;24.00;54.30
16172;DHT22;8192;53.596;10.166;2023-07-16T10:08:49;24.00;52.30
16172;DHT22;8192;53.596;10.166;2023-07-16T10:11:17;23.80;52.80
16172;DHT22;8192;53.596;10.166;2023-07-16T10:13:48;24.00;56.30
16172;DHT22;8192;53.596;10.166;2023-07-16T10:16:22;24.40;53.10
16172;DHT22;8192;53.596;10.166;2023-07-16T10:18:53;24.60;55.60
16172;DHT22;8192;53.596;10.166;2023-07-16T10:21:23;24.60;51.90
16172;DHT22;8192;53.596;10.166;2023-07-16T10:23:57;24.40;51.50
16172;DHT22;8192;53.596;10.166;2023-07-16T10:26:27;24.10;51.80
16172;DHT22;8192;53.596;10.166;2023-07-16T10:28:56;23.90;52.40
16172;DHT22;8192;53.596;10.166;2023-07-16T10:31:25;23.50;53.40
16172;DHT22;8192;53.596;10.166;2023-07-16T10:33:59;23.10;53.60
16172;DHT22;8192;53.596;10.166;2023-07-16T10:36:27;22.80;55.20
16172;DHT22;8192;53.596;10.166;2023-07-16T10:38:54;22.70;55.20
16172;DHT22;8192;53.596;10.166;2023-07-16T10:41:21;22.70;56.10
16172;DHT22;8192;53.596;10.166;2023-07-16T10:43:49;22.80;55.60
16172;DHT22;8192;53.596;10.166;2023-07-16T10:46:16;22.80;55.00
16172;DHT22;8192;53.596;10.166;2023-07-16T10:48:47;22.90;53.90
16172;DHT22;8192;53.596;10.166;2023-07-16T10:51:15;23.20;55.40
16172;DHT22;8192;53.596;10.166;2023-07-16T10:53:42;23.50;57.20
16172;DHT22;8192;53.596;10.166;2023-07-16T10:56:10;23.30;53.70
16172;DHT22;8192;53.596;10.166;2023-07-16T10:58:38;23.30;54.40
16172;DHT22;8192;53.596;10.166;2023-07-16T11:01:08;23.20;55.20
16172;DHT22;8192;53.596;10.166;2023-07-16T11:03:35;23.10;53.60
16172;DHT22;8192;53.596;10.166;2023-07-16T11:06:08;23.20;54.30
16172;DHT22;8192;53.596;10.166;2023-07-16T11:08:35;23.30;53.60
16172;DHT22;8192;53.596;10.166;2023-07-16T11:11:02;23.20;53.90
16172;DHT22;8192;53.596;10.166;2023-07-16T11:13:30;23.20;53.70
16172;DHT22;8192;53.596;10.166;2023-07-16T11:16:06;23.50;54.60
16172;DHT22;8192;53.596;10.166;2023-07-16T11:18:33;23.60;52.60
16172;DHT22;8192;53.596;10.166;2023-07-16T11:21:06;23.90;56.20
16172;DHT22;8192;53.596;10.166;2023-07-16T11:23:34;23.90;53.60
16172;DHT22;8192;53.596;10.166;2023-07-16T11:26:01;23.90;55.20
16172;DHT22;8192;53.596;10.166;2023-07-16T11:28:36;23.70;53.60
16172;DHT22;8192;53.596;10.166;2023-07-16T11:31:10;23.60;53.30
16172;DHT22;8192;53.596;10.166;2023-07-16T11:33:37;23.60;54.20
16172;DHT22;8192;53.596;10.166;2023-07-16T11:36:07;23.60;54.70
16172;DHT22;8192;53.596;10.166;2023-07-16T11:38:36;23.80;53.50
16172;DHT22;8192;53.596;10.166;2023-07-16T11:41:05;23.90;53.60
16172;DHT22;8192;53.596;10.166;2023-07-16T11:43:36;24.20;52.00
16172;DHT22;8192;53.596;10.166;2023-07-16T11:46:03;23.90;51.60
16172;DHT22;8192;53.596;10.166;2023-07-16T11:48:30;23.90;53.90
16172;DHT22;8192;53.596;10.166;2023-07-16T11:50:57;23.80;51.40
16172;DHT22;8192;53.596;10.166;2023-07-16T11:53:25;23.80;54.80
16172;DHT22;8192;53.596;10.166;2023-07-16T11:55:53;23.80;52.10
16172;DHT22;8192;53.596;10.166;2023-07-16T11:58:20;23.70;53.90
16172;DHT22;8192;53.596;10.166;2023-07-16T12:00:47;23.80;52.80
16172;DHT22;8192;53.596;10.166;2023-07-16T12:03:16;23.80;53.00
16172;DHT22;8192;53.596;10.166;2023-07-16T12:05:43;24.00;53.20
16172;DHT22;8192;53.596;10.166;2023-07-16T12:08:11;24.20;53.20
16172;DHT22;8192;53.596;10.166;2023-07-16T12:10:41;24.20;52.00
16172;DHT22;8192;53.596;10.166;2023-07-16T12:13:08;24.20;52.00
16172;DHT22;8192;53.596;10.166;2023-07-16T12:15:35;24.30;51.50
16172;DHT22;8192;53.596;10.166;2023-07-16T12:18:02;24.40;52.20
16172;DHT22;8192;53.596;10.166;2023-07-16T12:20:29;24.00;52.40
16172;DHT22;8192;53.596;10.166;2023-07-16T12:22:56;23.70;53.90
16172;DHT22;8192;53.596;10.166;2023-07-16T12:25:23;23.90;54.70
16172;DHT22;8192;53.596;10.166;2023-07-16T12:27:52;23.70;54.20
16172;DHT22;8192;53.596;10.166;2023-07-16T12:30:19;23.80;53.80
16172;DHT22;8192;53.596;10.166;2023-07-16T12:32:46;24.40;55.20
16172;DHT22;8192;53.596;10.166;2023-07-16T12:35:13;25.00;53.90
16172;DHT22;8192;53.596;10.166;2023-07-16T12:37:40;25.50;52.80
16172;DHT22;8192;53.596;10.166;2023-07-16T12:40:08;25.30;51.70
16172;DHT22;8192;53.596;10.166;2023-07-16T12:42:35;25.30;51.60
16172;DHT22;8192;53.596;10.166;2023-07-16T12:45:04;25.30;49.80
16172;DHT22;8192;53.596;10.166;2023-07-16T12:47:31;25.00;50.30
16172;DHT22;8192;53.596;10.166;2023-07-16T12:49:59;25.00;53.20
16172;DHT22;8192;53.596;10.166;2023-07-16T12:52:26;25.10;51.70
16172;DHT22;8192;53.596;10.166;2023-07-16T12:54:53;25.00;51.90
16172;DHT22;8192;53.596;10.166;2023-07-16T12:57:20;25.20;50.60
16172;DHT22;8192;53.596;10.166;2023-07-16T12:59:46;25.20;51.30
16172;DHT22;8192;53.596;10.166;2023-07-16T13:02:15;25.20;52.60
16172;DHT22;8192;53.596;10.166;2023-07-16T13:04:43;25.10;52.90
16172;DHT22;8192;53.596;10.166;2023-07-16T13:07:10;24.70;50.30
16172;DHT22;8192;53.596;10.166;2023-07-16T13:09:38;24.80;53.90
16172;DHT22;8192;53.596;10.166;2023-07-16T13:12:06;24.90;51.20
16172;DHT22;8192;53.596;10.166;2023-07-16T13:14:33;24.70;50.90
16172;DHT22;8192;53.596;10.166;2023-07-16T13:17:00;24.90;50.30
16172;DHT22;8192;53.596;10.166;2023-07-16T13:19:31;25.00;51.40
16172;DHT22;8192;53.596;10.166;2023-07-16T13:21:58;25.10;52.20
16172;DHT22;8192;53.596;10.166;2023-07-16T13:24:25;25.10;48.70
16172;DHT22;8192;53.596;10.166;2023-07-16T13:26:52;25.20;52.50
16172;DHT22;8192;53.596;10.166;2023-07-16T13:29:19;25.30;49.80
16172;DHT22;8192;53.596;10.166;2023-07-16T13:31:45;25.20;48.60
16172;DHT22;8192;53.596;10.166;2023-07-16T13:34:13;24.80;51.00
16172;DHT22;8192;53.596;10.166;2023-07-16T13:36:41;24.80;49.80
16172;DHT22;8192;53.596;10.166;2023-07-16T13:39:08;24.90;52.00
16172;DHT22;8192;53.596;10.166;2023-07-16T13:41:35;24.60;50.10
16172;DHT22;8192;53.596;10.166;2023-07-16T13:44:02;24.40;52.40
16172;DHT22;8192;53.596;10.166;2023-07-16T13:46:29;24.60;53.20
16172;DHT22;8192;53.596;10.166;2023-07-16T13:48:56;24.80;50.30
16172;DHT22;8192;53.596;10.166;2023-07-16T13:51:25;24.70;50.50
16172;DHT22;8192;53.596;10.166;2023-07-16T13:53:54;24.60;51.50
16172;DHT22;8192;53.596;10.166;2023-07-16T13:56:21;24.80;50.40
16172;DHT22;8192;53.596;10.166;2023-07-16T13:58:48;24.70;50.70
16172;DHT22;8192;53.596;10.166;2023-07-16T14:01:16;24.90;52.80
16172;DHT22;8192;53.596;10.166;2023-07-16T14:03:43;25.00;50.00
16172;DHT22;8192;53.596;10.166;2023-07-16T14:06:10;25.90;49.40
16172;DHT22;8192;53.596;10.166;2023-07-16T14:08:37;26.40;49.70
16172;DHT22;8192;53.596;10.166;2023-07-16T14:11:06;26.60;48.00
16172;DHT22;8192;53.596;10.166;2023-07-16T14:13:33;26.00;49.00
16172;DHT22;8192;53.596;10.166;2023-07-16T14:16:00;25.10;48.70
16172;DHT22;8192;53.596;10.166;2023-07-16T14:18:27;24.50;50.70
16172;DHT22;8192;53.596;10.166;2023-07-16T14:20:54;24.50;52.60
16172;DHT22;8192;53.596;10.166;2023-07-16T14:23:21;24.50;52.30
16172;DHT22;8192;53.596;10.166;2023-07-16T14:25:49;24.20;50.30
16172;DHT22;8192;53.596;10.166;2023-07-16T14:28:17;24.00;52.50
16172;DHT22;8192;53.596;10.166;2023-07-16T14:30:44;23.80;52.50
16172;DHT22;8192;53.596;10.166;2023-07-16T14:33:11;23.60;54.10
16172;DHT22;8192;53.596;10.166;2023-07-16T14:35:38;23.40;53.50
16172;DHT22;8192;53.596;10.166;2023-07-16T14:38:05;23.50;54.00
16172;DHT22;8192;53.596;10.166;2023-07-16T14:40:32;23.70;54.10
16172;DHT22;8192;53.596;10.166;2023-07-16T14:42:59;24.10;51.90
16172;DHT22;8192;53.596;10.166;2023-07-16T14:45:27;24.30;53.00
16172;DHT22;8192;53.596;10.166;2023-07-16T14:47:54;24.40;52.90
16172;DHT22;8192;53.596;10.166;2023-07-16T14:50:21;24.40;51.90
16172;DHT22;8192;53.596;10.166;2023-07-16T14:52:49;24.50;53.60
16172;DHT22;8192;53.596;10.166;2023-07-16T14:55:16;24.50;52.30
16172;DHT22;8192;53.596;10.166;2023-07-16T14:57:43;24.40;52.60
16172;DHT22;8192;53.596;10.166;2023-07-16T15:00:11;24.30;52.20
16172;DHT22;8192;53.596;10.166;2023-07-16T15:02:41;24.20;52.90
16172;DHT22;8192;53.596;10.166;2023-07-16T15:05:13;24.20;53.30
16172;DHT22;8192;53.596;10.166;2023-07-16T15:07:41;24.50;51.80
16172;DHT22;8192;53.596;10.166;2023-07-16T15:10:09;24.60;52.20
16172;DHT22;8192;53.596;10.166;2023-07-16T15:12:36;24.60;53.30
16172;DHT22;8192;53.596;10.166;2023-07-16T15:15:03;25.10;51.10
16172;DHT22;8192;53.596;10.166;2023-07-16T15:17:30;25.50;51.30
16172;DHT22;8192;53.596;10.166;2023-07-16T15:19:59;26.20;52.20
16172;DHT22;8192;53.596;10.166;2023-07-16T15:22:26;26.40;49.20
16172;DHT22;8192;53.596;10.166;2023-07-16T15:24:52;26.70;47.50
16172;DHT22;8192;53.596;10.166;2023-07-16T15:27:20;26.60;46.70
16172;DHT22;8192;53.596;10.166;2023-07-16T15:29:47;26.30;46.80
16172;DHT22;8192;53.596;10.166;2023-07-16T15:32:14;25.80;48.50
16172;DHT22;8192;53.596;10.166;2023-07-16T15:34:41;25.00;49.10